Time;durP1;ratioP1;P1;durP2;ratioP2;P2;SDS_P1;SDS_P2;PMS_P1;PMS_P2;Temp;Humidity;BMP_temperature;BMP_pressure;BME280_temperature;BME280_humidity;BME280_pressure;Samples;Min_cycle;Max_cycle;Signal;HPM_P1;HPM_P2
2022/09/04 00:01:47;;;;;;;2.50;2.30;;;;;;;;;;5109816;28;20247;-62
2022/09/04 00:04:21;;;;;;;4.17;2.60;;;;;;;;;;5117920;28;20565;-63
2022/09/04 00:06:53;;;;;;;2.03;1.93;;;;;;;;;;5117848;28;20569;-62
2022/09/04 00:09:28;;;;;;;4.77;2.43;;;;;;;;;;5118108;28;20208;-62
2022/09/04 00:11:59;;;;;;;3.53;2.30;;;;;;;;;;5117884;28;20246;-62
2022/09/04 00:14:30;;;;;;;2.70;2.10;;;;;;;;;;5117834;28;20696;-62
2022/09/04 00:17:02;;;;;;;4.77;2.40;;;;;;;;;;5117972;28;20212;-62
2022/09/04 00:19:34;;;;;;;3.17;2.57;;;;;;;;;;5117779;28;20200;-62
2022/09/04 00:22:04;;;;;;;2.33;2.10;;;;;;;;;;5117965;28;20207;-62
2022/09/04 00:24:35;;;;;;;2.47;2.27;;;;;;;;;;5104063;28;20225;-62
2022/09/04 00:27:05;;;;;;;3.70;2.70;;;;;;;;;;5104227;28;20270;-62
2022/09/04 00:29:37;;;;;;;4.00;3.03;;;;;;;;;;5117822;28;20240;-62
2022/09/04 00:32:09;;;;;;;2.60;2.17;;;;;;;;;;5117941;28;20208;-62
2022/09/04 00:34:44;;;;;;;2.37;2.17;;;;;;;;;;5117477;28;20228;-62
2022/09/04 00:37:16;;;;;;;4.23;2.27;;;;;;;;;;5117847;28;20231;-63
2022/09/04 00:39:46;;;;;;;4.53;2.50;;;;;;;;;;5117324;28;20702;-62
2022/09/04 00:42:22;;;;;;;2.87;2.27;;;;;;;;;;5117872;28;20283;-61
2022/09/04 00:44:54;;;;;;;2.77;2.57;;;;;;;;;;5117509;28;20277;-62
2022/09/04 00:47:33;;;;;;;3.20;2.40;;;;;;;;;;5117807;28;20201;-63
2022/09/04 00:50:16;;;;;;;2.40;2.20;;;;;;;;;;5117497;28;20197;-62
2022/09/04 00:52:53;;;;;;;4.70;2.40;;;;;;;;;;5115029;28;20241;-62
2022/09/04 00:55:30;;;;;;;2.57;2.30;;;;;;;;;;5116923;28;20257;-62
2022/09/04 00:58:09;;;;;;;3.70;2.53;;;;;;;;;;5117807;28;20253;-62
2022/09/04 01:00:38;;;;;;;4.03;2.87;;;;;;;;;;5117754;28;20205;-62
2022/09/04 01:03:29;;;;;;;3.50;2.70;;;;;;;;;;5100741;28;20212;-62
2022/09/04 01:06:07;;;;;;;3.47;2.67;;;;;;;;;;5103951;28;20572;-62
2022/09/04 01:08:41;;;;;;;2.47;2.27;;;;;;;;;;5121145;28;20247;-62
2022/09/04 01:11:13;;;;;;;2.70;2.13;;;;;;;;;;5120537;28;20236;-62
2022/09/04 01:13:43;;;;;;;2.17;1.97;;;;;;;;;;5120933;28;20247;-62
2022/09/04 01:16:15;;;;;;;2.50;2.30;;;;;;;;;;5120644;28;20283;-62
2022/09/04 01:18:48;;;;;;;3.07;2.60;;;;;;;;;;5120677;28;20629;-62
2022/09/04 01:21:29;;;;;;;2.33;2.13;;;;;;;;;;5120623;28;20208;-62
2022/09/04 01:24:16;;;;;;;2.73;2.53;;;;;;;;;;5111534;28;20225;-62
2022/09/04 01:26:47;;;;;;;3.23;2.47;;;;;;;;;;5100224;28;20255;-62
2022/09/04 01:29:22;;;;;;;4.20;2.40;;;;;;;;;;5100385;28;20214;-62
2022/09/04 01:31:52;;;;;;;3.27;2.50;;;;;;;;;;5107332;28;20232;-62
2022/09/04 01:34:26;;;;;;;4.47;2.60;;;;;;;;;;5120497;28;20229;-62
2022/09/04 01:36:58;;;;;;;3.90;2.13;;;;;;;;;;5120357;28;20201;-62
2022/09/04 01:39:29;;;;;;;2.80;2.37;;;;;;;;;;5120300;28;20217;-62
2022/09/04 01:42:00;;;;;;;2.40;2.20;;;;;;;;;;5120201;28;20239;-62
2022/09/04 01:44:29;;;;;;;7.03;2.47;;;;;;;;;;5120153;28;20283;-62
2022/09/04 01:47:02;;;;;;;3.23;2.10;;;;;;;;;;5120226;28;20616;-62
2022/09/04 01:49:34;;;;;;;2.83;2.47;;;;;;;;;;5120311;28;20197;-62
2022/09/04 01:52:18;;;;;;;3.30;2.40;;;;;;;;;;5120204;28;20208;-63
2022/09/04 01:54:59;;;;;;;2.97;2.10;;;;;;;;;;5120052;28;20231;-62
2022/09/04 01:57:38;;;;;;;3.20;2.23;;;;;;;;;;5119822;28;20209;-62
2022/09/04 02:00:08;;;;;;;3.27;1.93;;;;;;;;;;5120139;28;20246;-62
2022/09/04 02:02:54;;;;;;;8.27;2.43;;;;;;;;;;5099869;28;20205;-62
2022/09/04 02:05:26;;;;;;;2.40;2.03;;;;;;;;;;5099260;28;20671;-62
2022/09/04 02:08:01;;;;;;;3.00;2.10;;;;;;;;;;5099714;28;20201;-62
2022/09/04 02:10:33;;;;;;;2.37;2.13;;;;;;;;;;5097915;28;20213;-62
2022/09/04 02:13:08;;;;;;;3.00;2.20;;;;;;;;;;5099157;28;20632;-62
2022/09/04 02:15:41;;;;;;;3.83;2.50;;;;;;;;;;5099165;28;20220;-62
2022/09/04 02:18:13;;;;;;;3.03;2.67;;;;;;;;;;5099369;28;20205;-62
2022/09/04 02:20:46;;;;;;;3.60;2.03;;;;;;;;;;5099341;28;20201;-62
2022/09/04 02:23:18;;;;;;;1.77;1.67;;;;;;;;;;5103943;28;20229;-62
2022/09/04 02:25:49;;;;;;;2.03;1.93;;;;;;;;;;5118988;28;20801;-62
2022/09/04 02:28:23;;;;;;;3.67;2.00;;;;;;;;;;5119323;28;20259;-62
2022/09/04 02:30:55;;;;;;;2.00;1.90;;;;;;;;;;5119683;28;20236;-62
2022/09/04 02:33:29;;;;;;;1.90;1.80;;;;;;;;;;5119452;28;20225;-63
2022/09/04 02:35:59;;;;;;;1.50;1.40;;;;;;;;;;5119490;28;20251;-64
2022/09/04 02:38:32;;;;;;;3.33;1.53;;;;;;;;;;5119424;28;20250;-64
2022/09/04 02:41:05;;;;;;;2.20;2.00;;;;;;;;;;5119040;28;20210;-63
2022/09/04 02:43:44;;;;;;;2.10;1.90;;;;;;;;;;5119033;28;20236;-62
2022/09/04 02:46:16;;;;;;;2.63;1.80;;;;;;;;;;5118905;28;20587;-64
2022/09/04 02:48:56;;;;;;;2.90;1.57;;;;;;;;;;5119036;28;20781;-64
2022/09/04 02:51:30;;;;;;;1.70;1.60;;;;;;;;;;5106504;28;20667;-64
2022/09/04 02:54:02;;;;;;;1.80;1.70;;;;;;;;;;5118380;28;20238;-64
2022/09/04 02:56:38;;;;;;;2.50;1.40;;;;;;;;;;5118708;28;20287;-64
2022/09/04 02:59:23;;;;;;;1.97;1.77;;;;;;;;;;5119216;28;20210;-64
2022/09/04 03:01:56;;;;;;;1.70;1.43;;;;;;;;;;5112166;28;20236;-64
2022/09/04 03:04:31;;;;;;;2.30;1.73;;;;;;;;;;5118647;28;20651;-64
2022/09/04 03:07:03;;;;;;;2.93;1.50;;;;;;;;;;5118650;28;20650;-64
2022/09/04 03:09:33;;;;;;;2.70;1.93;;;;;;;;;;5118339;28;20667;-64
2022/09/04 03:12:04;;;;;;;1.97;1.70;;;;;;;;;;5118425;28;20218;-64
2022/09/04 03:14:37;;;;;;;1.70;1.60;;;;;;;;;;5118717;28;20266;-64
2022/09/04 03:17:08;;;;;;;1.60;1.50;;;;;;;;;;5118332;28;20225;-64
2022/09/04 03:19:40;;;;;;;2.43;1.60;;;;;;;;;;5118639;28;20709;-64
2022/09/04 03:22:13;;;;;;;3.83;1.97;;;;;;;;;;5118426;28;20287;-64
2022/09/04 03:24:45;;;;;;;2.90;1.50;;;;;;;;;;5103063;28;20251;-64
2022/09/04 03:27:17;;;;;;;5.03;2.07;;;;;;;;;;5098180;28;20203;-64
2022/09/04 03:29:50;;;;;;;1.60;1.50;;;;;;;;;;5098185;28;20216;-64
2022/09/04 03:32:21;;;;;;;3.93;1.97;;;;;;;;;;5097984;28;20208;-64
2022/09/04 03:34:51;;;;;;;3.83;1.70;;;;;;;;;;5097755;28;20568;-64
2022/09/04 03:37:46;;;;;;;1.70;1.60;;;;;;;;;;5097759;28;20703;-64
2022/09/04 03:40:30;;;;;;;2.93;2.00;;;;;;;;;;5097559;28;20675;-64
2022/09/04 03:43:05;;;;;;;2.17;1.97;;;;;;;;;;5125110;27;20195;-64
2022/09/04 03:45:39;;;;;;;1.73;1.63;;;;;;;;;;5125131;27;20301;-64
2022/09/04 03:48:12;;;;;;;2.20;1.60;;;;;;;;;;5106926;28;20229;-64
2022/09/04 03:50:44;;;;;;;3.97;1.90;;;;;;;;;;5126050;28;20266;-64
2022/09/04 03:53:17;;;;;;;3.13;1.93;;;;;;;;;;5125077;28;20292;-64
2022/09/04 03:56:02;;;;;;;1.83;1.73;;;;;;;;;;5124040;27;21640;-64
2022/09/04 03:58:37;;;;;;;1.97;1.83;;;;;;;;;;5128616;28;20226;-64
2022/09/04 04:01:12;;;;;;;2.10;1.90;;;;;;;;;;5107613;28;20209;-64
2022/09/04 04:03:48;;;;;;;1.70;1.60;;;;;;;;;;5111182;28;20253;-63
2022/09/04 04:06:22;;;;;;;4.33;2.10;;;;;;;;;;5107640;28;20199;-64
2022/09/04 04:08:59;;;;;;;1.90;1.80;;;;;;;;;;5106915;28;20208;-64
2022/09/04 04:11:35;;;;;;;6.00;2.23;;;;;;;;;;5105008;28;20565;-61
2022/09/04 04:14:22;;;;;;;2.10;1.93;;;;;;;;;;5105609;28;20222;-62
2022/09/04 04:16:59;;;;;;;2.63;1.67;;;;;;;;;;5104469;28;20255;-62
2022/09/04 04:19:34;;;;;;;2.23;2.03;;;;;;;;;;5101579;28;20710;-61
2022/09/04 04:22:09;;;;;;;1.73;1.63;;;;;;;;;;5105430;28;20197;-62
2022/09/04 04:24:53;;;;;;;3.00;2.00;;;;;;;;;;5107061;28;20216;-62
2022/09/04 04:27:26;;;;;;;1.80;1.70;;;;;;;;;;5106176;28;20193;-61
2022/09/04 04:30:07;;;;;;;2.77;2.20;;;;;;;;;;5109278;28;20233;-61
2022/09/04 04:32:47;;;;;;;2.87;2.33;;;;;;;;;;5105466;28;20205;-62
2022/09/04 04:35:18;;;;;;;2.83;2.30;;;;;;;;;;5107146;28;20221;-61
2022/09/04 04:37:55;;;;;;;3.20;1.90;;;;;;;;;;5108308;28;20220;-62
2022/09/04 04:40:27;;;;;;;3.00;2.03;;;;;;;;;;5107999;28;20200;-61
2022/09/04 04:43:00;;;;;;;1.90;1.80;;;;;;;;;;5111311;28;20235;-61
2022/09/04 04:48:29;;;;;;;3.17;1.97;;;;;;;;;;5103579;28;20224;-62
2022/09/04 04:51:04;;;;;;;3.53;2.03;;;;;;;;;;5109189;28;20201;-62
2022/09/04 04:53:36;;;;;;;3.30;2.57;;;;;;;;;;5109120;28;20244;-61
2022/09/04 04:56:06;;;;;;;2.37;2.17;;;;;;;;;;5108187;28;20197;-61
2022/09/04 04:58:43;;;;;;;2.47;2.27;;;;;;;;;;5108886;28;20205;-62
2022/09/04 05:01:17;;;;;;;2.17;2.07;;;;;;;;;;5111954;28;20200;-62
2022/09/04 05:03:54;;;;;;;3.43;2.07;;;;;;;;;;5107888;28;20248;-61
2022/09/04 05:06:27;;;;;;;4.93;2.33;;;;;;;;;;5107675;28;20192;-62
2022/09/04 05:08:57;;;;;;;3.93;1.80;;;;;;;;;;5107343;28;20228;-62
2022/09/04 05:11:32;;;;;;;4.40;2.27;;;;;;;;;;5109695;28;20206;-62
2022/09/04 05:14:02;;;;;;;2.77;2.57;;;;;;;;;;5114773;27;20216;-63
2022/09/04 05:16:46;;;;;;;5.07;2.70;;;;;;;;;;5114974;27;20221;-62
2022/09/04 05:19:26;;;;;;;3.90;2.73;;;;;;;;;;5109789;28;20625;-62
2022/09/04 05:21:59;;;;;;;3.47;2.77;;;;;;;;;;5111234;28;20546;-62
2022/09/04 05:24:32;;;;;;;3.70;2.43;;;;;;;;;;5111955;27;20212;-62
2022/09/04 05:27:03;;;;;;;2.97;2.27;;;;;;;;;;5128014;27;20551;-62
2022/09/04 05:29:36;;;;;;;6.13;2.67;;;;;;;;;;5126593;27;20276;-62
2022/09/04 05:32:08;;;;;;;4.07;2.63;;;;;;;;;;5126439;27;20197;-62
2022/09/04 05:34:57;;;;;;;7.67;2.77;;;;;;;;;;5124669;27;20274;-62
2022/09/04 05:37:27;;;;;;;5.90;2.87;;;;;;;;;;5120654;28;20237;-62
2022/09/04 05:40:00;;;;;;;4.13;2.93;;;;;;;;;;5120372;28;20233;-62
2022/09/04 05:42:41;;;;;;;7.00;2.90;;;;;;;;;;5120293;28;20236;-62
2022/09/04 05:45:13;;;;;;;5.70;2.90;;;;;;;;;;5119774;28;20584;-62
2022/09/04 05:47:44;;;;;;;3.30;2.83;;;;;;;;;;5120260;28;20654;-62
2022/09/04 05:50:24;;;;;;;6.10;2.60;;;;;;;;;;5120164;28;20265;-62
2022/09/04 05:52:58;;;;;;;3.07;2.40;;;;;;;;;;5119800;28;20232;-62
2022/09/04 05:55:37;;;;;;;3.73;2.63;;;;;;;;;;5129466;27;20193;-62
2022/09/04 05:58:16;;;;;;;2.53;2.33;;;;;;;;;;5121925;27;20225;-62
2022/09/04 06:00:46;;;;;;;2.67;2.30;;;;;;;;;;5116313;27;20508;-62
2022/09/04 06:03:23;;;;;;;3.80;3.00;;;;;;;;;;5129082;27;20254;-62
2022/09/04 06:05:58;;;;;;;5.23;2.47;;;;;;;;;;5129135;27;20195;-64
2022/09/04 06:08:31;;;;;;;5.07;3.03;;;;;;;;;;5115104;27;20196;-63
2022/09/04 06:11:06;;;;;;;8.07;3.10;;;;;;;;;;5107490;28;20203;-62
2022/09/04 06:13:47;;;;;;;4.60;3.13;;;;;;;;;;5112227;27;20222;-62
2022/09/04 06:16:23;;;;;;;4.20;2.93;;;;;;;;;;5124994;27;20202;-62
2022/09/04 06:19:01;;;;;;;4.50;3.83;;;;;;;;;;5125032;27;20256;-62
2022/09/04 06:21:53;;;;;;;4.17;3.10;;;;;;;;;;5130623;27;20253;-62
2022/09/04 06:24:35;;;;;;;6.50;3.53;;;;;;;;;;5123798;27;20212;-62
2022/09/04 06:27:10;;;;;;;4.80;3.30;;;;;;;;;;5118072;27;20207;-62
2022/09/04 06:29:48;;;;;;;3.43;3.13;;;;;;;;;;5127594;27;20192;-62
2022/09/04 06:32:43;;;;;;;3.37;2.90;;;;;;;;;;5127425;27;20256;-61
2022/09/04 06:35:25;;;;;;;2.80;2.60;;;;;;;;;;5092887;27;20202;-62
2022/09/04 06:38:03;;;;;;;4.03;2.63;;;;;;;;;;5129760;27;20285;-63
2022/09/04 06:40:41;;;;;;;3.30;2.60;;;;;;;;;;5116851;27;20201;-64
2022/09/04 06:43:15;;;;;;;3.13;2.80;;;;;;;;;;5098597;28;20231;-64
2022/09/04 06:45:47;;;;;;;5.63;3.40;;;;;;;;;;5099245;28;20209;-64
2022/09/04 06:48:23;;;;;;;4.10;2.63;;;;;;;;;;5118992;28;20239;-65
2022/09/04 06:50:58;;;;;;;4.00;2.60;;;;;;;;;;5118823;28;20283;-65
2022/09/04 06:53:33;;;;;;;3.53;3.00;;;;;;;;;;5118668;28;20279;-64
2022/09/04 06:56:10;;;;;;;5.93;3.40;;;;;;;;;;5116058;28;20239;-64
2022/09/04 06:58:47;;;;;;;3.40;2.60;;;;;;;;;;5103666;28;20643;-65
2022/09/04 07:01:18;;;;;;;6.30;2.63;;;;;;;;;;5113217;28;20212;-65
2022/09/04 07:03:57;;;;;;;3.23;2.87;;;;;;;;;;5118273;27;20229;-62
2022/09/04 07:06:31;;;;;;;4.70;2.83;;;;;;;;;;5121934;27;20205;-65
2022/09/04 07:09:05;;;;;;;3.37;3.07;;;;;;;;;;5126117;27;20672;-63
2022/09/04 07:11:40;;;;;;;3.13;2.83;;;;;;;;;;5127280;27;20220;-63
2022/09/04 07:14:21;;;;;;;5.77;3.57;;;;;;;;;;5125173;27;20216;-63
2022/09/04 07:16:57;;;;;;;8.63;5.60;;;;;;;;;;5125899;27;20199;-63
2022/09/04 07:20:01;;;;;;;4.33;3.67;;;;;;;;;;5115973;27;20719;-63
2022/09/04 07:22:52;;;;;;;3.07;2.77;;;;;;;;;;5040335;28;20233;-63
2022/09/04 07:25:27;;;;;;;3.37;2.77;;;;;;;;;;5054902;28;20593;-63
2022/09/04 07:28:07;;;;;;;3.30;2.73;;;;;;;;;;5097599;28;20211;-64
2022/09/04 07:30:40;;;;;;;5.70;3.57;;;;;;;;;;5118022;28;20223;-63
2022/09/04 07:33:11;;;;;;;6.43;2.93;;;;;;;;;;5117865;28;20250;-63
2022/09/04 07:35:46;;;;;;;5.33;3.43;;;;;;;;;;5118268;28;20241;-63
2022/09/04 07:38:19;;;;;;;4.37;3.50;;;;;;;;;;5115741;28;20568;-65
2022/09/04 07:40:52;;;;;;;3.37;3.07;;;;;;;;;;5123544;27;20203;-63
2022/09/04 07:43:23;;;;;;;5.07;3.03;;;;;;;;;;5122886;27;20244;-64
2022/09/04 07:45:58;;;;;;;3.20;2.60;;;;;;;;;;5120758;27;20196;-64
2022/09/04 07:48:30;;;;;;;5.77;3.30;;;;;;;;;;5122882;28;20558;-65
2022/09/04 07:51:08;;;;;;;4.30;3.23;;;;;;;;;;5124569;27;20667;-64
2022/09/04 07:53:52;;;;;;;3.03;2.73;;;;;;;;;;5121189;28;20281;-64
2022/09/04 07:56:30;;;;;;;5.77;3.17;;;;;;;;;;5126006;28;20246;-66
2022/09/04 07:59:20;;;;;;;5.43;3.33;;;;;;;;;;5127374;28;20214;-66
2022/09/04 08:01:58;;;;;;;4.27;3.30;;;;;;;;;;5107733;28;20195;-65
2022/09/04 08:04:36;;;;;;;5.30;4.80;;;;;;;;;;5105114;28;20249;-65
2022/09/04 08:07:07;;;;;;;4.00;3.50;;;;;;;;;;5114680;28;20200;-65
2022/09/04 08:09:42;;;;;;;4.83;3.30;;;;;;;;;;5121241;27;20195;-65
2022/09/04 08:12:26;;;;;;;3.50;3.20;;;;;;;;;;5119700;27;20200;-68
2022/09/04 08:14:56;;;;;;;10.93;6.20;;;;;;;;;;5117434;28;20215;-62
2022/09/04 08:17:42;;;;;;;15.00;10.27;;;;;;;;;;5120063;28;20203;-64
2022/09/04 08:20:18;;;;;;;6.90;4.40;;;;;;;;;;5109499;28;20721;-63
2022/09/04 08:22:52;;;;;;;4.33;3.47;;;;;;;;;;5112353;28;20254;-62
2022/09/04 08:25:25;;;;;;;5.87;3.30;;;;;;;;;;5113708;28;20263;-64
2022/09/04 08:28:00;;;;;;;5.60;2.93;;;;;;;;;;5121661;28;20195;-64
2022/09/04 08:30:31;;;;;;;3.97;3.00;;;;;;;;;;5121763;28;20201;-64
2022/09/04 08:33:14;;;;;;;3.47;3.17;;;;;;;;;;5121512;28;20580;-64
2022/09/04 08:35:48;;;;;;;4.10;3.27;;;;;;;;;;5121819;28;20202;-64
2022/09/04 08:38:31;;;;;;;5.47;3.73;;;;;;;;;;5121576;28;20218;-64
2022/09/04 08:41:19;;;;;;;7.17;3.83;;;;;;;;;;5118906;28;20210;-64
2022/09/04 08:43:56;;;;;;;3.73;3.20;;;;;;;;;;5121299;28;20235;-64
2022/09/04 08:46:38;;;;;;;4.90;2.97;;;;;;;;;;5121196;27;20246;-64
2022/09/04 08:49:21;;;;;;;4.00;2.50;;;;;;;;;;5121392;28;20247;-62
2022/09/04 08:52:10;;;;;;;3.60;2.73;;;;;;;;;;5122310;28;20216;-63
2022/09/04 08:54:49;;;;;;;2.97;2.67;;;;;;;;;;5121130;28;20236;-63
2022/09/04 08:57:28;;;;;;;3.33;3.00;;;;;;;;;;5121108;28;20719;-63
2022/09/04 09:00:03;;;;;;;3.87;3.00;;;;;;;;;;5120911;28;20213;-64
2022/09/04 09:02:49;;;;;;;2.80;2.40;;;;;;;;;;5102343;28;20212;-64
2022/09/04 09:05:30;;;;;;;3.03;2.60;;;;;;;;;;5100863;28;20210;-63
2022/09/04 09:08:21;;;;;;;4.93;2.50;;;;;;;;;;5100531;28;20622;-61
2022/09/04 09:10:59;;;;;;;7.13;2.50;;;;;;;;;;5100398;28;20294;-62
2022/09/04 09:13:45;;;;;;;3.00;2.43;;;;;;;;;;5100277;28;20282;-62
2022/09/04 09:16:23;;;;;;;3.67;2.50;;;;;;;;;;5118758;27;20192;-62
2022/09/04 09:19:08;;;;;;;4.90;2.70;;;;;;;;;;5107942;27;20776;-60
2022/09/04 09:21:43;;;;;;;4.13;2.70;;;;;;;;;;5115514;28;20205;-60
2022/09/04 09:24:29;;;;;;;3.33;2.90;;;;;;;;;;5117085;28;20714;-61
2022/09/04 09:27:10;;;;;;;5.40;3.07;;;;;;;;;;5112098;28;20198;-61
2022/09/04 09:29:59;;;;;;;3.43;2.87;;;;;;;;;;5116474;28;20610;-62
2022/09/04 09:32:41;;;;;;;4.57;2.70;;;;;;;;;;5118975;28;20726;-62
2022/09/04 09:35:26;;;;;;;5.27;3.00;;;;;;;;;;5116657;28;20224;-61
2022/09/04 09:38:18;;;;;;;4.17;2.80;;;;;;;;;;5114151;28;20192;-62
2022/09/04 09:41:08;;;;;;;6.37;3.07;;;;;;;;;;5117884;28;20284;-61
2022/09/04 09:43:59;;;;;;;3.43;2.63;;;;;;;;;;5117839;28;20216;-61
2022/09/04 09:46:37;;;;;;;4.33;2.87;;;;;;;;;;5113899;28;20196;-61
2022/09/04 09:49:17;;;;;;;5.23;2.77;;;;;;;;;;5118726;28;20198;-62
2022/09/04 09:52:08;;;;;;;3.73;3.33;;;;;;;;;;5113106;28;20207;-60
2022/09/04 09:54:54;;;;;;;6.23;3.03;;;;;;;;;;5106099;28;20599;-61
2022/09/04 09:57:45;;;;;;;8.00;3.43;;;;;;;;;;5114526;28;20210;-62
2022/09/04 10:00:14;;;;;;;3.17;2.63;;;;;;;;;;5116462;28;20228;-61
2022/09/04 10:02:57;;;;;;;3.60;2.80;;;;;;;;;;5116944;28;20204;-61
2022/09/04 10:05:55;;;;;;;3.63;3.00;;;;;;;;;;5118034;28;20348;-61
2022/09/04 10:08:44;;;;;;;3.87;2.60;;;;;;;;;;5115483;28;20207;-61
2022/09/04 10:11:29;;;;;;;5.00;2.93;;;;;;;;;;5097624;28;20676;-61
2022/09/04 10:14:16;;;;;;;4.77;2.80;;;;;;;;;;5092973;28;20220;-61
2022/09/04 10:17:09;;;;;;;2.97;2.77;;;;;;;;;;5116111;28;20269;-61
2022/09/04 10:19:52;;;;;;;5.43;2.67;;;;;;;;;;5099034;28;20227;-61
2022/09/04 10:22:44;;;;;;;4.80;2.83;;;;;;;;;;5098066;28;20211;-61
2022/09/04 10:25:34;;;;;;;7.80;3.30;;;;;;;;;;5101861;28;20254;-61
2022/09/04 10:28:14;;;;;;;2.93;2.67;;;;;;;;;;5117271;28;20592;-61
2022/09/04 10:30:55;;;;;;;5.67;3.10;;;;;;;;;;5116839;28;20245;-61
2022/09/04 10:33:32;;;;;;;8.83;3.23;;;;;;;;;;5117199;28;20315;-62
2022/09/04 10:36:05;;;;;;;3.73;2.60;;;;;;;;;;5117781;28;20204;-61
2022/09/04 10:40:34;;;;;;;2.77;2.40;;;;;;;;;;5118061;28;20650;-62
2022/09/04 10:41:48;;;;;;;4.00;2.80;;;;;;;;;;5117290;28;20225;-62
2022/09/04 10:44:39;;;;;;;5.57;2.57;;;;;;;;;;5117303;28;20239;-61
2022/09/04 10:47:15;;;;;;;3.27;2.63;;;;;;;;;;5098534;28;20234;-61
2022/09/04 10:49:50;;;;;;;4.87;2.57;;;;;;;;;;5117332;28;20223;-61
2022/09/04 10:52:51;;;;;;;4.63;3.23;;;;;;;;;;5113582;27;20565;-62
2022/09/04 10:55:25;;;;;;;5.90;3.03;;;;;;;;;;5084625;28;20207;-62
2022/09/04 10:58:00;;;;;;;6.63;3.10;;;;;;;;;;5095386;28;20235;-62
2022/09/04 11:00:35;;;;;;;6.33;2.63;;;;;;;;;;5084186;28;20200;-63
2022/09/04 11:03:29;;;;;;;6.40;2.50;;;;;;;;;;5074651;28;20663;-63
2022/09/04 11:06:27;;;;;;;4.07;2.53;;;;;;;;;;5039525;28;20270;-63
2022/09/04 11:09:04;;;;;;;4.10;2.47;;;;;;;;;;5012611;28;20246;-63
2022/09/04 11:11:46;;;;;;;2.77;2.50;;;;;;;;;;5064143;28;20261;-64
2022/09/04 11:14:20;;;;;;;3.07;2.30;;;;;;;;;;5074557;28;20246;-63
2022/09/04 11:17:08;;;;;;;7.60;3.00;;;;;;;;;;5074712;28;20217;-63
2022/09/04 11:19:52;;;;;;;6.00;2.43;;;;;;;;;;5073988;28;20229;-64
2022/09/04 11:22:47;;;;;;;4.67;2.27;;;;;;;;;;5072716;28;20204;-63
2022/09/04 11:25:31;;;;;;;6.57;2.13;;;;;;;;;;5073243;28;20226;-61
2022/09/04 11:28:07;;;;;;;3.37;2.23;;;;;;;;;;5043678;28;20261;-63
2022/09/04 11:30:51;;;;;;;9.07;2.73;;;;;;;;;;5080100;28;20255;-64
2022/09/04 11:33:37;;;;;;;5.17;2.87;;;;;;;;;;5074380;28;20229;-64
2022/09/04 11:36:20;;;;;;;3.93;3.00;;;;;;;;;;5074292;28;20202;-63
2022/09/04 11:39:03;;;;;;;4.30;2.10;;;;;;;;;;5063834;28;20205;-62
2022/09/04 11:41:59;;;;;;;5.30;2.60;;;;;;;;;;5073479;28;20204;-64
2022/09/04 11:44:46;;;;;;;7.07;2.20;;;;;;;;;;5070427;28;20255;-64
2022/09/04 11:47:41;;;;;;;3.57;2.30;;;;;;;;;;5073138;28;20213;-64
2022/09/04 11:50:20;;;;;;;7.40;2.20;;;;;;;;;;5046335;28;20209;-65
2022/09/04 11:53:00;;;;;;;4.30;2.10;;;;;;;;;;5093816;28;20221;-64
2022/09/04 11:55:35;;;;;;;3.47;2.23;;;;;;;;;;5093625;28;20255;-64
2022/09/04 11:58:19;;;;;;;3.70;2.10;;;;;;;;;;5093954;28;20265;-65
2022/09/04 12:00:57;;;;;;;2.50;1.80;;;;;;;;;;5081707;28;20240;-65
2022/09/04 12:03:37;;;;;;;2.73;2.00;;;;;;;;;;5081983;28;20286;-65
2022/09/04 12:06:13;;;;;;;6.07;2.63;;;;;;;;;;5079625;28;20572;-65
2022/09/04 12:09:06;;;;;;;4.03;2.40;;;;;;;;;;5079436;28;20619;-65
2022/09/04 12:11:55;;;;;;;4.87;2.40;;;;;;;;;;5052447;28;20228;-66
2022/09/04 12:14:32;;;;;;;3.50;2.60;;;;;;;;;;5037822;28;20281;-65
2022/09/04 12:17:24;;;;;;;5.87;2.47;;;;;;;;;;5060192;28;20234;-65
2022/09/04 12:20:07;;;;;;;4.03;2.30;;;;;;;;;;5060231;28;20232;-65
2022/09/04 12:22:51;;;;;;;5.00;2.27;;;;;;;;;;5059638;28;20236;-65
2022/09/04 12:25:39;;;;;;;4.00;3.03;;;;;;;;;;5055767;28;20216;-65
2022/09/04 12:28:20;;;;;;;3.40;2.40;;;;;;;;;;5055312;28;20240;-65
2022/09/04 12:30:57;;;;;;;2.97;2.20;;;;;;;;;;5059645;28;20213;-65
2022/09/04 12:33:45;;;;;;;4.53;1.90;;;;;;;;;;5059542;28;20229;-65
2022/09/04 12:36:28;;;;;;;3.63;2.20;;;;;;;;;;5059501;28;20558;-65
2022/09/04 12:39:17;;;;;;;4.10;2.00;;;;;;;;;;5059266;28;20336;-65
2022/09/04 12:41:50;;;;;;;3.30;2.30;;;;;;;;;;5034275;28;20200;-65
2022/09/04 12:44:22;;;;;;;3.73;1.83;;;;;;;;;;5059369;28;20746;-65
2022/09/04 12:46:59;;;;;;;5.17;2.07;;;;;;;;;;5058509;28;20217;-65
2022/09/04 12:49:38;;;;;;;9.33;2.47;;;;;;;;;;5059407;28;20286;-65
2022/09/04 12:52:17;;;;;;;9.50;2.50;;;;;;;;;;5048143;28;20239;-65
2022/09/04 12:54:51;;;;;;;5.17;1.90;;;;;;;;;;5059143;28;20237;-65
2022/09/04 12:57:29;;;;;;;4.33;2.60;;;;;;;;;;5059102;28;20210;-65
2022/09/04 13:00:04;;;;;;;2.80;1.83;;;;;;;;;;5059140;28;20204;-65
2022/09/04 13:02:37;;;;;;;5.63;2.40;;;;;;;;;;5059084;28;20652;-65
2022/09/04 13:05:14;;;;;;;4.30;2.30;;;;;;;;;;5059288;28;20232;-65
2022/09/04 13:07:47;;;;;;;4.53;2.70;;;;;;;;;;5058973;28;20234;-65
2022/09/04 13:10:21;;;;;;;3.37;2.20;;;;;;;;;;5059015;28;20202;-65
2022/09/04 13:12:58;;;;;;;2.40;2.13;;;;;;;;;;5059026;28;20231;-65
2022/09/04 13:15:31;;;;;;;2.83;1.80;;;;;;;;;;5058059;28;20208;-65
2022/09/04 13:18:13;;;;;;;4.27;1.87;;;;;;;;;;5059097;28;20206;-65
2022/09/04 13:20:46;;;;;;;5.77;2.20;;;;;;;;;;5058506;28;20558;-65
2022/09/04 13:23:19;;;;;;;8.03;2.30;;;;;;;;;;5058312;28;20280;-65
2022/09/04 13:25:58;;;;;;;5.00;2.43;;;;;;;;;;5045934;28;20221;-65
2022/09/04 13:28:34;;;;;;;3.27;1.47;;;;;;;;;;5058724;28;20207;-65
2022/09/04 13:31:08;;;;;;;5.07;1.67;;;;;;;;;;5058546;28;20226;-65
2022/09/04 13:33:43;;;;;;;6.13;2.13;;;;;;;;;;5058539;28;20286;-65
2022/09/04 13:36:22;;;;;;;3.73;1.67;;;;;;;;;;5058612;28;20244;-65
2022/09/04 13:39:04;;;;;;;4.37;1.83;;;;;;;;;;5058369;28;20257;-65
2022/09/04 13:41:38;;;;;;;4.57;2.27;;;;;;;;;;5058423;28;20214;-65
2022/09/04 13:44:22;;;;;;;8.27;2.07;;;;;;;;;;5058084;28;20275;-65
2022/09/04 13:46:56;;;;;;;4.17;2.17;;;;;;;;;;5057299;28;20213;-65
2022/09/04 13:49:27;;;;;;;3.00;1.67;;;;;;;;;;5058412;28;20207;-65
2022/09/04 13:51:58;;;;;;;3.63;1.90;;;;;;;;;;5057934;28;20245;-65
2022/09/04 13:54:30;;;;;;;2.97;1.57;;;;;;;;;;5057686;28;20298;-65
2022/09/04 13:57:02;;;;;;;8.20;2.73;;;;;;;;;;5057958;28;20208;-65
2022/09/04 13:59:33;;;;;;;3.07;1.60;;;;;;;;;;5058315;28;20208;-65
2022/09/04 14:02:03;;;;;;;4.30;1.80;;;;;;;;;;5058020;28;20207;-65
2022/09/04 14:04:34;;;;;;;2.50;1.57;;;;;;;;;;5057829;28;20594;-64
2022/09/04 14:07:06;;;;;;;4.10;1.50;;;;;;;;;;5058091;28;20246;-64
2022/09/04 14:09:37;;;;;;;3.08;1.77;;;;;;;;;;5057460;28;20211;-65
2022/09/04 14:12:14;;;;;;;3.40;1.67;;;;;;;;;;5057648;28;20645;-66
2022/09/04 14:15:12;;;;;;;2.35;1.55;;;;;;;;;;5057621;28;20735;-66
2022/09/04 14:17:45;;;;;;;5.90;2.22;;;;;;;;;;5057918;28;20254;-64
2022/09/04 14:20:15;;;;;;;2.92;1.33;;;;;;;;;;5057850;28;20241;-64
2022/09/04 14:22:51;;;;;;;5.05;1.73;;;;;;;;;;5052867;28;20237;-64
2022/09/04 14:25:25;;;;;;;3.63;1.67;;;;;;;;;;5056999;28;20235;-64
2022/09/04 14:28:02;;;;;;;5.07;1.88;;;;;;;;;;5057844;28;20209;-65
2022/09/04 14:30:34;;;;;;;3.17;1.50;;;;;;;;;;5057811;28;20208;-64
2022/09/04 14:33:13;;;;;;;3.15;1.40;;;;;;;;;;5057673;28;20229;-64
2022/09/04 14:36:07;;;;;;;3.95;1.40;;;;;;;;;;5057427;28;20657;-65
2022/09/04 14:38:48;;;;;;;3.00;1.17;;;;;;;;;;5057113;28;20206;-66
2022/09/04 14:41:30;;;;;;;4.80;1.70;;;;;;;;;;5047491;28;20198;-66
2022/09/04 14:44:11;;;;;;;6.32;1.80;;;;;;;;;;5046692;28;20214;-66
2022/09/04 14:46:45;;;;;;;3.53;1.45;;;;;;;;;;5055907;28;20240;-66
2022/09/04 14:49:22;;;;;;;5.95;2.00;;;;;;;;;;5057234;28;20229;-66
2022/09/04 14:51:55;;;;;;;2.10;1.52;;;;;;;;;;5056903;28;20240;-65
2022/09/04 14:54:25;;;;;;;1.92;1.30;;;;;;;;;;5057016;28;20231;-66
2022/09/04 14:56:56;;;;;;;3.85;1.73;;;;;;;;;;5057203;28;20273;-66
2022/09/04 14:59:28;;;;;;;2.78;1.67;;;;;;;;;;5057536;28;20239;-64
2022/09/04 15:02:01;;;;;;;2.57;1.70;;;;;;;;;;5057270;28;20234;-65
2022/09/04 15:04:34;;;;;;;1.70;1.23;;;;;;;;;;5057192;28;20226;-66
2022/09/04 15:07:04;;;;;;;6.63;1.25;;;;;;;;;;5057253;28;20237;-66
2022/09/04 15:09:41;;;;;;;4.87;1.60;;;;;;;;;;5057094;28;20205;-65
2022/09/04 15:12:15;;;;;;;3.23;1.17;;;;;;;;;;5056952;28;20210;-66
2022/09/04 15:14:54;;;;;;;2.63;1.43;;;;;;;;;;5056772;28;20238;-65
2022/09/04 15:17:27;;;;;;;3.30;1.40;;;;;;;;;;5057247;28;20242;-66
2022/09/04 15:19:59;;;;;;;2.87;1.50;;;;;;;;;;5057127;28;20281;-65
2022/09/04 15:22:31;;;;;;;7.57;1.63;;;;;;;;;;5057381;28;20208;-66
2022/09/04 15:25:01;;;;;;;3.15;1.83;;;;;;;;;;5057031;28;20281;-66
2022/09/04 15:27:32;;;;;;;5.33;1.30;;;;;;;;;;5057025;28;20212;-65
2022/09/04 15:30:05;;;;;;;2.90;1.23;;;;;;;;;;5057284;28;20204;-66
2022/09/04 15:32:38;;;;;;;2.33;1.40;;;;;;;;;;5057240;28;20234;-65
2022/09/04 15:35:11;;;;;;;3.67;1.37;;;;;;;;;;5056752;28;20236;-64
2022/09/04 15:37:41;;;;;;;6.50;3.23;;;;;;;;;;5058483;28;20240;-64
2022/09/04 15:40:10;;;;;;;3.63;1.30;;;;;;;;;;5060520;28;20233;-65
2022/09/04 15:42:42;;;;;;;3.30;1.20;;;;;;;;;;5060807;28;20220;-65
2022/09/04 15:45:16;;;;;;;4.23;1.77;;;;;;;;;;5059902;28;20263;-65
2022/09/04 15:47:59;;;;;;;2.43;1.43;;;;;;;;;;5060650;28;20526;-65